createdAt,value
2022-08-05T00:00:16.043Z,98332.34
2022-08-05T00:02:43.906Z,98334.53
2022-08-05T00:06:01.922Z,98332.91
2022-08-05T00:08:04.903Z,98334.00
2022-08-05T00:10:32.616Z,98340.19
2022-08-05T00:12:59.115Z,98343.41
2022-08-05T00:15:58.079Z,98337.56
2022-08-05T00:18:15.088Z,98331.91
2022-08-05T00:20:48.837Z,98338.88
2022-08-05T00:23:15.498Z,98331.66
2022-08-05T00:25:46.186Z,98341.03
2022-08-05T00:28:13.286Z,98343.94
2022-08-05T00:30:39.815Z,98333.25
2022-08-05T00:34:42.317Z,98327.38
2022-08-05T00:36:16.333Z,98321.75
2022-08-05T00:38:41.264Z,98328.19
2022-08-05T00:41:11.792Z,98331.66
2022-08-05T00:43:46.953Z,98325.75
2022-08-05T00:46:16.076Z,98310.78
2022-08-05T00:48:51.330Z,98310.78
2022-08-05T00:51:50.547Z,98319.41
2022-08-05T00:54:05.502Z,98318.81
2022-08-05T00:56:32.039Z,98329.53
2022-08-05T00:58:59.320Z,98334.63
2022-08-05T01:01:42.481Z,98335.16
2022-08-05T01:04:14.344Z,98338.13
2022-08-05T01:06:46.711Z,98325.81
2022-08-05T01:09:15.517Z,98319.09
2022-08-05T01:11:48.233Z,98310.03
2022-08-05T01:14:35.339Z,98313.50
2022-08-05T01:17:22.680Z,98325.81
2022-08-05T01:20:00.691Z,98317.81
2022-08-05T01:22:57.260Z,98292.16
2022-08-05T01:25:40.776Z,98296.16
2022-08-05T01:28:24.432Z,98302.06
2022-08-05T01:30:59.288Z,98308.75
2022-08-05T01:33:29.531Z,98337.38
2022-08-05T01:36:05.197Z,98354.22
2022-08-05T01:38:31.697Z,98360.66
2022-08-05T01:40:58.915Z,98344.09
2022-08-05T01:43:26.376Z,98320.06
2022-08-05T01:45:56.712Z,98315.78
2022-08-05T01:48:25.183Z,98330.19
2022-08-05T01:50:51.754Z,98302.66
2022-08-05T01:53:54.427Z,98320.81
2022-08-05T01:56:05.769Z,98327.50
2022-08-05T01:58:40.832Z,98306.16
2022-08-05T02:01:11.907Z,98308.31
2022-08-05T02:03:39.785Z,98308.31
2022-08-05T02:06:37.190Z,98303.22
2022-08-05T02:08:58.639Z,98265.00
2022-08-05T02:11:33.339Z,98214.97
2022-08-05T02:14:12.310Z,98213.13
2022-08-05T02:16:44.904Z,98217.09
2022-08-05T02:19:17.837Z,98215.81
2022-08-05T02:21:49.585Z,98213.13
2022-08-05T02:24:18.638Z,98212.59
2022-08-05T02:26:58.431Z,98228.63
2022-08-05T02:29:59.116Z,98237.25
2022-08-05T02:32:12.512Z,98246.91
2022-08-05T02:34:54.925Z,98246.59
2022-08-05T02:37:22.039Z,98238.88
2022-08-05T02:39:51.729Z,98230.06
2022-08-05T02:42:26.028Z,98236.25
2022-08-05T02:44:54.276Z,98256.25
2022-08-05T02:47:21.042Z,98258.44
2022-08-05T02:49:47.862Z,98240.50
2022-08-05T02:52:29.354Z,98237.59
2022-08-05T02:54:57.204Z,98230.88
2022-08-05T02:58:11.319Z,98243.69
2022-08-05T03:00:11.410Z,98237.81
2022-08-05T03:02:40.487Z,98229.56
2022-08-05T03:05:10.303Z,98212.44
2022-08-05T03:08:00.912Z,98221.53
2022-08-05T03:10:25.129Z,98219.38
2022-08-05T03:12:52.443Z,98234.06
2022-08-05T03:15:19.174Z,98232.75
2022-08-05T03:17:45.912Z,98236.50
2022-08-05T03:20:13.435Z,98225.81
2022-08-05T03:22:44.231Z,98225.00
2022-08-05T03:25:32.630Z,98227.94
2022-08-05T03:28:04.430Z,98227.13
2022-08-05T03:30:34.250Z,98229.28
2022-08-05T03:33:05.619Z,98233.03
2022-08-05T03:35:40.707Z,98226.28
2022-08-05T03:38:08.111Z,98225.53
2022-08-05T03:40:34.651Z,98226.34
2022-08-05T03:43:59.149Z,98228.69
2022-08-05T03:45:57.200Z,98231.84
2022-08-05T03:48:24.056Z,98238.25
2022-08-05T03:52:34.980Z,98245.47
2022-08-05T03:55:06.817Z,98251.06
2022-08-05T03:56:42.328Z,98240.66
2022-08-05T03:59:21.502Z,98243.59
2022-08-05T04:01:51.230Z,98255.38
2022-08-05T04:04:21.155Z,98254.28
2022-08-05T04:06:51.336Z,98265.00
2022-08-05T04:09:26.188Z,98262.06
2022-08-05T04:11:53.842Z,98257.81
2022-08-05T04:14:30.646Z,98272.50
2022-08-05T04:16:57.664Z,98274.38
2022-08-05T04:19:24.863Z,98280.81
2022-08-05T04:22:09.085Z,98280.56
2022-08-05T04:24:44.034Z,98283.22
2022-08-05T04:27:12.923Z,98285.09
2022-08-05T04:29:40.005Z,98283.97
2022-08-05T04:32:07.813Z,98285.81
2022-08-05T04:34:36.602Z,98280.97
2022-08-05T04:37:09.255Z,98276.94
2022-08-05T04:39:36.122Z,98272.38
2022-08-05T04:42:03.751Z,98273.97
2022-08-05T04:44:30.807Z,98279.91
2022-08-05T04:46:58.873Z,98277.22
2022-08-05T04:49:38.596Z,98291.16
2022-08-05T04:52:12.542Z,98288.47
2022-08-05T04:54:39.032Z,98289.56
2022-08-05T04:57:05.581Z,98285.50
2022-08-05T04:59:40.565Z,98284.72
2022-08-05T05:02:36.947Z,98283.13
2022-08-05T05:05:01.624Z,98286.31
2022-08-05T05:07:29.266Z,98294.34
2022-08-05T05:09:56.366Z,98291.41
2022-08-05T05:12:24.291Z,98310.91
2022-08-05T05:14:54.091Z,98320.53
2022-08-05T05:17:24.259Z,98324.81
2022-08-05T05:19:55.157Z,98343.25
2022-08-05T05:22:26.362Z,98357.44
2022-08-05T05:24:58.453Z,98366.00
2022-08-05T05:27:45.796Z,98383.41
2022-08-05T05:30:31.305Z,98380.44
2022-08-05T05:33:08.919Z,98386.88
2022-08-05T05:35:43.808Z,98400.25
2022-08-05T05:38:13.855Z,98383.09
2022-08-05T05:40:50.187Z,98366.25
2022-08-05T05:43:27.679Z,98334.44
2022-08-05T05:46:10.677Z,98317.56
2022-08-05T05:48:41.800Z,98323.75
2022-08-05T05:51:15.444Z,98313.84
2022-08-05T05:53:54.132Z,98323.75
2022-08-05T05:56:31.347Z,98338.72
2022-08-05T05:59:03.371Z,98333.63
2022-08-05T06:01:38.010Z,98339.50
2022-08-05T06:04:06.852Z,98326.41
2022-08-05T06:06:34.812Z,98332.56
2022-08-05T06:09:01.786Z,98315.19
2022-08-05T06:11:30.553Z,98305.81
2022-08-05T06:13:57.055Z,98302.34
2022-08-05T06:16:31.066Z,98299.66
2022-08-05T06:19:01.821Z,98298.06
2022-08-05T06:21:37.620Z,98301.53
2022-08-05T06:24:11.239Z,98293.50
2022-08-05T06:26:39.161Z,98290.81
2022-08-05T06:29:06.921Z,98279.06
2022-08-05T06:31:51.364Z,98277.44
2022-08-05T06:34:20.100Z,98275.06
2022-08-05T06:36:57.445Z,98279.06
2022-08-05T06:39:27.142Z,98273.72
2022-08-05T06:41:58.996Z,98270.25
2022-08-05T06:44:26.089Z,98268.06
2022-08-05T06:46:52.635Z,98274.50
2022-08-05T06:50:00.759Z,98271.53
2022-08-05T06:52:07.507Z,98276.91
2022-08-05T06:54:54.013Z,98275.81
2022-08-05T06:58:02.807Z,98287.31
2022-08-05T07:00:07.718Z,98287.31
2022-08-05T07:02:46.075Z,98281.44
2022-08-05T07:05:18.503Z,98273.44
2022-08-05T07:07:48.777Z,98268.88
2022-08-05T07:10:16.447Z,98286.00
2022-08-05T07:13:02.293Z,98298.28
2022-08-05T07:16:01.123Z,98310.59
2022-08-05T07:18:31.415Z,98296.41
2022-08-05T07:20:58.260Z,98278.78
2022-08-05T07:23:31.370Z,98286.00
2022-08-05T07:25:57.864Z,98292.94
2022-08-05T07:28:25.206Z,98289.47
2022-08-05T07:30:54.866Z,98295.63
2022-08-05T07:33:36.855Z,98301.78
2022-08-05T07:36:20.033Z,98289.22
2022-08-05T07:38:47.452Z,98291.06
2022-08-05T07:42:14.419Z,98291.88
2022-08-05T07:44:05.241Z,98301.50
2022-08-05T07:46:31.814Z,98294.53
2022-08-05T07:49:05.496Z,98292.66
2022-08-05T07:51:40.726Z,98295.34
2022-08-05T07:54:15.336Z,98296.16
2022-08-05T07:57:13.658Z,98288.94
2022-08-05T07:59:38.013Z,98300.44
2022-08-05T08:02:16.286Z,98309.25
2022-08-05T08:04:47.651Z,98304.69
2022-08-05T08:07:15.398Z,98316.47
2022-08-05T08:09:42.321Z,98317.28
2022-08-05T08:12:19.063Z,98328.78
2022-08-05T08:14:55.352Z,98334.91
2022-08-05T08:17:22.109Z,98334.13
2022-08-05T08:20:23.440Z,98325.28
2022-08-05T08:22:36.545Z,98326.09
2022-08-05T08:25:16.513Z,98311.97
2022-08-05T08:27:44.913Z,98327.69
2022-08-05T08:30:29.936Z,98335.72
2022-08-05T08:33:04.409Z,98348.00
2022-08-05T08:35:40.883Z,98338.13
2022-08-05T08:38:11.698Z,98336.50
2022-08-05T08:40:46.643Z,98350.69
2022-08-05T08:45:16.448Z,98344.53
2022-08-05T08:46:05.980Z,98344.81
2022-08-05T08:48:59.694Z,98354.72
2022-08-05T08:52:03.249Z,98357.69
2022-08-05T08:54:10.458Z,98363.84
2022-08-05T08:56:47.441Z,98368.09
2022-08-05T08:59:19.746Z,98368.09
2022-08-05T09:01:57.570Z,98356.66
2022-08-05T09:04:30.410Z,98366.50
2022-08-05T09:06:57.449Z,98372.91
2022-08-05T09:09:24.870Z,98378.25
2022-08-05T09:11:59.317Z,98378.00
2022-08-05T09:14:57.338Z,98381.78
2022-08-05T09:17:42.881Z,98379.88
2022-08-05T09:20:06.643Z,98384.19
2022-08-05T09:23:07.910Z,98391.38
2022-08-05T09:26:00.325Z,98394.06
2022-08-05T09:28:24.364Z,98400.22
2022-08-05T09:31:23.394Z,98399.41
2022-08-05T09:34:04.484Z,98401.28
2022-08-05T09:36:45.848Z,98396.72
2022-08-05T09:39:23.039Z,98395.66
2022-08-05T09:42:03.716Z,98396.72
2022-08-05T09:44:50.722Z,98399.41
2022-08-05T09:47:22.830Z,98415.72
2022-08-05T09:50:02.506Z,98413.88
2022-08-05T09:52:34.065Z,98423.75
2022-08-05T09:55:00.466Z,98438.75
2022-08-05T09:57:47.653Z,98445.16
2022-08-05T10:00:21.600Z,98443.56
2022-08-05T10:02:54.512Z,98446.22
2022-08-05T10:05:22.606Z,98453.47
2022-08-05T10:08:36.963Z,98451.56
2022-08-05T10:10:43.948Z,98447.31
2022-08-05T10:13:10.445Z,98445.44
2022-08-05T10:15:41.253Z,98450.78
2022-08-05T10:18:14.272Z,98460.69
2022-08-05T10:20:48.750Z,98466.84
2022-08-05T10:23:55.782Z,98466.84
2022-08-05T10:26:13.838Z,98465.25
2022-08-05T10:28:45.143Z,98467.63
2022-08-05T10:32:48.663Z,98474.88
2022-08-05T10:34:00.679Z,98476.44
2022-08-05T10:36:27.186Z,98480.22
2022-08-05T10:38:58.483Z,98474.88
2022-08-05T10:41:45.129Z,98476.75
2022-08-05T10:44:16.136Z,98469.53
2022-08-05T10:46:54.364Z,98486.63
2022-08-05T10:49:26.978Z,98476.22
2022-08-05T10:52:02.649Z,98475.94
2022-08-05T10:54:56.498Z,98491.19
2022-08-05T10:57:31.806Z,98500.53
2022-08-05T11:00:20.476Z,98498.13
2022-08-05T11:03:25.169Z,98498.13
2022-08-05T11:06:15.837Z,98504.28
2022-08-05T11:09:10.563Z,98508.03
2022-08-05T11:11:52.019Z,98510.72
2022-08-05T11:14:57.798Z,98510.47
2022-08-05T11:17:59.689Z,98508.31
2022-08-05T11:20:32.597Z,98521.41
2022-08-05T11:23:02.197Z,98531.31
2022-08-05T11:26:04.486Z,98537.47
2022-08-05T11:28:23.585Z,98544.41
2022-08-05T11:30:58.221Z,98545.50
2022-08-05T11:33:46.728Z,98548.97
2022-08-05T11:36:34.022Z,98550.84
2022-08-05T11:39:03.587Z,98542.03
2022-08-05T11:41:54.625Z,98546.84
2022-08-05T11:44:40.848Z,98553.81
2022-08-05T11:47:14.074Z,98553.25
2022-08-05T11:49:49.788Z,98565.56
2022-08-05T11:52:29.718Z,98573.59
2022-08-05T11:54:58.772Z,98578.13
2022-08-05T11:57:30.653Z,98578.41
2022-08-05T11:59:57.766Z,98583.47
2022-08-05T12:02:33.003Z,98577.63
2022-08-05T12:05:07.540Z,98581.38
2022-08-05T12:08:10.443Z,98584.56
2022-08-05T12:10:22.843Z,98589.13
2022-08-05T12:12:59.605Z,98586.72
2022-08-05T12:15:35.976Z,98579.22
2022-08-05T12:18:10.688Z,98591.00
2022-08-05T12:20:39.176Z,98588.84
2022-08-05T12:23:12.045Z,98592.59
2022-08-05T12:25:56.797Z,98596.06
2022-08-05T12:28:33.972Z,98594.19
2022-08-05T12:31:02.389Z,98599.53
2022-08-05T12:33:36.787Z,98608.63
2022-08-05T12:36:07.133Z,98616.38
2022-08-05T12:38:39.665Z,98627.09
2022-08-05T12:41:13.940Z,98630.84
2022-08-05T12:44:11.555Z,98642.34
2022-08-05T12:46:41.580Z,98646.91
2022-08-05T12:49:14.539Z,98654.41
2022-08-05T12:52:14.425Z,98656.00
2022-08-05T12:54:32.700Z,98659.75
2022-08-05T12:57:03.777Z,98669.66
2022-08-05T13:00:08.482Z,98663.22
2022-08-05T13:02:27.373Z,98667.78
2022-08-05T13:04:57.300Z,98669.91
2022-08-05T13:07:57.098Z,98670.69
2022-08-05T13:10:13.919Z,98666.16
2022-08-05T13:12:51.303Z,98666.16
2022-08-05T13:15:41.957Z,98681.94
2022-08-05T13:18:19.440Z,98688.91
2022-08-05T13:20:47.204Z,98700.69
2022-08-05T13:23:16.414Z,98695.03
2022-08-05T13:25:51.721Z,98696.13
2022-08-05T13:28:25.555Z,98695.31
2022-08-05T13:30:53.266Z,98693.44
2022-08-05T13:34:21.104Z,98696.13
2022-08-05T13:36:07.136Z,98695.31
2022-08-05T13:38:38.474Z,98694.53
2022-08-05T13:41:10.092Z,98691.84
2022-08-05T13:43:44.220Z,98706.28
2022-08-05T13:46:12.487Z,98707.09
2022-08-05T13:49:00.726Z,98708.94
2022-08-05T13:51:28.670Z,98724.47
2022-08-05T13:53:57.838Z,98721.78
2022-08-05T13:56:25.609Z,98721.78
2022-08-05T13:58:53.343Z,98721.28
2022-08-05T14:01:22.732Z,98728.22
2022-08-05T14:04:12.317Z,98725.56
2022-08-05T14:06:38.982Z,98727.94
2022-08-05T14:09:14.131Z,98727.16
2022-08-05T14:12:04.190Z,98732.50
2022-08-05T14:14:32.517Z,98731.69
2022-08-05T14:17:00.403Z,98729.31
2022-08-05T14:19:27.335Z,98729.81
2022-08-05T14:22:09.582Z,98736.25
2022-08-05T14:24:39.816Z,98737.06
2022-08-05T14:27:17.499Z,98733.31
2022-08-05T14:29:45.150Z,98727.16
2022-08-05T14:32:27.046Z,98731.69
2022-08-05T14:34:54.084Z,98734.38
2022-08-05T14:37:24.082Z,98737.06
2022-08-05T14:40:10.804Z,98736.25
2022-08-05T14:42:41.254Z,98745.34
2022-08-05T14:45:10.014Z,98745.59
2022-08-05T14:48:05.325Z,98753.38
2022-08-05T14:50:23.169Z,98758.97
2022-08-05T14:52:56.912Z,98759.78
2022-08-05T14:55:26.186Z,98754.97
2022-08-05T14:58:10.986Z,98761.66
2022-08-05T15:00:38.109Z,98763.28
2022-08-05T15:03:06.027Z,98761.41
2022-08-05T15:06:07.925Z,98766.22
2022-08-05T15:08:57.734Z,98762.72
2022-08-05T15:11:09.304Z,98766.22
2022-08-05T15:13:45.815Z,98753.38
2022-08-05T15:16:13.359Z,98763.81
2022-08-05T15:18:40.365Z,98760.31
2022-08-05T15:21:08.616Z,98755.78
2022-08-05T15:23:35.112Z,98758.19
2022-08-05T15:26:04.556Z,98758.44
2022-08-05T15:28:31.051Z,98763.81
2022-08-05T15:30:57.600Z,98763.81
2022-08-05T15:34:04.175Z,98762.22
2022-08-05T15:36:17.678Z,98764.88
2022-08-05T15:38:51.304Z,98758.72
2022-08-05T15:41:56.054Z,98765.13
2022-08-05T15:44:24.316Z,98769.44
2022-08-05T15:46:52.680Z,98769.44
2022-08-05T15:49:27.420Z,98763.28
2022-08-05T15:52:13.997Z,98764.59
2022-08-05T15:54:43.931Z,98763.53
2022-08-05T15:57:10.546Z,98763.53
2022-08-05T15:59:38.082Z,98758.19
2022-08-05T16:02:04.904Z,98766.22
2022-08-05T16:04:36.407Z,98757.38
2022-08-05T16:07:02.925Z,98758.19
2022-08-05T16:09:32.369Z,98757.38
2022-08-05T16:11:59.012Z,98764.31
2022-08-05T16:14:26.029Z,98768.63
2022-08-05T16:16:52.562Z,98762.44
2022-08-05T16:20:03.191Z,98772.09
2022-08-05T16:22:07.003Z,98762.44
2022-08-05T16:24:40.302Z,98773.16
2022-08-05T16:27:17.475Z,98771.31
2022-08-05T16:29:50.394Z,98771.31
2022-08-05T16:32:18.118Z,98771.31
2022-08-05T16:34:54.759Z,98770.47
2022-08-05T16:38:15.574Z,98773.16
2022-08-05T16:40:25.009Z,98770.75
2022-08-05T16:42:55.456Z,98780.38
2022-08-05T16:46:06.702Z,98776.91
2022-08-05T16:48:08.440Z,98786.81
2022-08-05T16:50:36.970Z,98782.25
2022-08-05T16:53:12.400Z,98784.94
2022-08-05T16:55:48.807Z,98782.25
2022-08-05T16:58:15.408Z,98784.94
2022-08-05T17:00:48.079Z,98787.59
2022-08-05T17:03:19.999Z,98784.94
2022-08-05T17:05:51.764Z,98781.47
2022-08-05T17:08:36.251Z,98787.59
2022-08-05T17:11:08.877Z,98788.41
2022-08-05T17:13:41.545Z,98784.94
2022-08-05T17:16:29.616Z,98789.47
2022-08-05T17:18:55.293Z,98797.22
2022-08-05T17:21:23.649Z,98794.03
2022-08-05T17:24:05.827Z,98800.97
2022-08-05T17:26:34.875Z,98794.81
2022-08-05T17:29:07.539Z,98804.72
2022-08-05T17:31:56.432Z,98806.59
2022-08-05T17:34:30.028Z,98811.97
2022-08-05T17:36:58.540Z,98810.09
2022-08-05T17:39:29.910Z,98819.19
2022-08-05T17:42:18.317Z,98815.72
2022-08-05T17:44:50.427Z,98821.84
2022-08-05T17:47:18.703Z,98822.94
2022-08-05T17:49:59.696Z,98833.63
2022-08-05T17:52:27.962Z,98834.69
2022-08-05T17:54:54.873Z,98840.84
2022-08-05T17:57:21.973Z,98844.56
2022-08-05T18:00:05.323Z,98860.38
2022-08-05T18:02:33.284Z,98852.59
2022-08-05T18:05:06.329Z,98861.44
2022-08-05T18:07:41.332Z,98864.09
2022-08-05T18:10:10.919Z,98868.66
2022-08-05T18:12:37.921Z,98875.63
2022-08-05T18:15:05.057Z,98871.31
2022-08-05T18:17:58.926Z,98882.81
2022-08-05T18:20:19.331Z,98896.19
2022-08-05T18:22:57.369Z,98895.41
2022-08-05T18:25:25.067Z,98891.91
2022-08-05T18:27:52.547Z,98894.59
2022-08-05T18:30:19.397Z,98906.09
2022-08-05T18:33:00.474Z,98912.78
2022-08-05T18:35:59.993Z,98913.88
2022-08-05T18:38:19.110Z,98923.50
2022-08-05T18:41:56.901Z,98921.91
2022-08-05T18:43:38.325Z,98933.63
2022-08-05T18:46:09.652Z,98930.97
2022-08-05T18:48:36.700Z,98932.84
2022-08-05T18:52:06.151Z,98934.72
2022-08-05T18:54:13.439Z,98942.75
2022-08-05T18:56:40.427Z,98943.00
2022-08-05T18:59:42.062Z,98949.16
2022-08-05T19:01:58.001Z,98948.34
2022-08-05T19:04:25.175Z,98951.03
2022-08-05T19:06:51.762Z,98955.59
2022-08-05T19:09:20.167Z,98954.78
2022-08-05T19:11:59.315Z,98963.59
2022-08-05T19:14:53.480Z,98968.97
2022-08-05T19:17:14.305Z,98970.81
2022-08-05T19:19:46.422Z,98978.03
2022-08-05T19:22:13.701Z,98975.34
2022-08-05T19:24:54.155Z,98986.03
2022-08-05T19:27:22.927Z,98988.72
2022-08-05T19:29:49.956Z,98984.16
2022-08-05T19:32:16.500Z,98998.88
2022-08-05T19:34:55.090Z,98996.22
2022-08-05T19:37:30.111Z,98999.97
2022-08-05T19:40:10.555Z,99006.38
2022-08-05T19:42:38.817Z,99016.00
2022-08-05T19:45:06.550Z,99018.91
2022-08-05T19:47:37.689Z,99028.59
2022-08-05T19:50:04.685Z,99031.25
2022-08-05T19:52:34.122Z,99029.38
2022-08-05T19:55:07.275Z,99025.09
2022-08-05T19:58:07.153Z,99036.03
2022-08-05T20:00:35.514Z,99039.25
2022-08-05T20:03:05.358Z,99049.41
2022-08-05T20:05:50.083Z,99053.97
2022-08-05T20:08:17.065Z,99057.44
2022-08-05T20:10:43.560Z,99063.06
2022-08-05T20:13:10.873Z,99055.03
2022-08-05T20:15:52.205Z,99053.97
2022-08-05T20:18:32.718Z,99060.38
2022-08-05T20:21:00.663Z,99056.91
2022-08-05T20:23:44.492Z,99062.25
2022-08-05T20:26:16.146Z,99072.16
2022-08-05T20:28:48.580Z,99076.69
2022-08-05T20:31:16.561Z,99079.59
2022-08-05T20:33:44.483Z,99082.28
2022-08-05T20:36:11.417Z,99092.19
2022-08-05T20:38:38.174Z,99089.78
2022-08-05T20:41:23.907Z,99097.00
2022-08-05T20:44:00.401Z,99101.53
2022-08-05T20:46:30.839Z,99111.16
2022-08-05T20:48:58.311Z,99105.25
2022-08-05T20:51:25.064Z,99107.13
2022-08-05T20:53:56.433Z,99112.72
2022-08-05T20:56:28.869Z,99116.19
2022-08-05T20:59:00.003Z,99114.56
2022-08-05T21:01:41.101Z,99111.09
2022-08-05T21:04:09.995Z,99109.22
2022-08-05T21:06:37.618Z,99113.78
2022-08-05T21:09:12.407Z,99117.25
2022-08-05T21:12:07.316Z,99114.56
2022-08-05T21:14:27.450Z,99116.44
2022-08-05T21:16:54.958Z,99121.00
2022-08-05T21:19:21.434Z,99131.69
2022-08-05T21:21:50.855Z,99130.06
2022-08-05T21:24:19.593Z,99130.88
2022-08-05T21:26:50.536Z,99135.41
2022-08-05T21:29:26.487Z,99131.13
2022-08-05T21:31:58.328Z,99131.13
2022-08-05T21:34:24.827Z,99126.84
2022-08-05T21:36:51.330Z,99134.06
2022-08-05T21:39:26.620Z,99135.13
2022-08-05T21:42:00.930Z,99138.84
2022-08-05T21:44:28.272Z,99133.75
2022-08-05T21:46:55.719Z,99137.25
2022-08-05T21:50:00.386Z,99140.72
2022-08-05T21:52:15.752Z,99147.13
2022-08-05T21:54:43.633Z,99137.25
2022-08-05T21:57:30.222Z,99136.69
2022-08-05T22:00:06.050Z,99134.03
2022-08-05T22:02:33.064Z,99143.91
2022-08-05T22:05:00.151Z,99145.78
2022-08-05T22:07:39.394Z,99139.38
2022-08-05T22:10:13.980Z,99137.78
2022-08-05T22:12:44.705Z,99143.91
2022-08-05T22:15:16.369Z,99146.59
2022-08-05T22:17:56.297Z,99143.91
2022-08-05T22:20:26.471Z,99147.41
2022-08-05T22:23:15.908Z,99138.81
2022-08-05T22:26:10.016Z,99150.56
2022-08-05T22:28:38.061Z,99154.03
2022-08-05T22:31:05.741Z,99158.59
2022-08-05T22:33:55.543Z,99158.84
2022-08-05T22:36:19.107Z,99157.25
2022-08-05T22:38:50.407Z,99163.41
2022-08-05T22:42:05.419Z,99172.50
2022-08-05T22:44:07.421Z,99174.34
2022-08-05T22:46:33.946Z,99174.34
2022-08-05T22:49:07.858Z,99175.97
2022-08-05T22:52:05.805Z,99173.53
2022-08-05T22:54:26.212Z,99177.00
2022-08-05T22:56:54.339Z,99181.53
2022-08-05T22:59:45.755Z,99179.13
2022-08-05T23:02:08.514Z,99181.53
2022-08-05T23:04:35.869Z,99186.09
2022-08-05T23:07:02.469Z,99179.94
2022-08-05T23:09:58.311Z,99186.09
2022-08-05T23:12:17.830Z,99183.69
2022-08-05T23:14:44.623Z,99191.44
2022-08-05T23:17:34.492Z,99193.31
2022-08-05T23:20:06.146Z,99199.72
2022-08-05T23:22:42.831Z,99200.53
2022-08-05T23:25:09.318Z,99204.25
2022-08-05T23:27:57.798Z,99204.25
2022-08-05T23:30:27.172Z,99208.81
2022-08-05T23:32:55.753Z,99208.81
2022-08-05T23:35:24.352Z,99217.88
2022-08-05T23:37:55.165Z,99216.25
2022-08-05T23:40:27.143Z,99217.31
2022-08-05T23:42:53.956Z,99215.72
2022-08-05T23:45:20.451Z,99214.91
2022-08-05T23:47:50.312Z,99222.13
2022-08-05T23:50:20.486Z,99223.97
2022-08-05T23:52:49.905Z,99226.91
2022-08-05T23:55:17.075Z,99233.06
2022-08-05T23:57:43.945Z,99226.09
